createdAt,value
2018-01-12T00:00:15.500Z,52.17
2018-01-12T00:02:41.935Z,52.73
2018-01-12T00:05:08.480Z,55.47
2018-01-12T00:07:34.872Z,54.27
2018-01-12T00:10:01.251Z,51.00
2018-01-12T00:12:27.723Z,50.77
2018-01-12T00:14:54.093Z,52.97
2018-01-12T00:17:20.488Z,55.53
2018-01-12T00:19:46.876Z,48.93
2018-01-12T00:22:13.229Z,48.73
2018-01-12T00:24:39.680Z,50.37
2018-01-12T00:27:06.213Z,50.67
2018-01-12T00:29:32.631Z,51.43
2018-01-12T00:31:58.991Z,51.73
2018-01-12T00:34:25.367Z,52.00
2018-01-12T00:36:51.779Z,53.97
2018-01-12T00:39:18.229Z,48.73
2018-01-12T00:41:44.615Z,49.20
2018-01-12T00:44:11.024Z,51.60
2018-01-12T00:46:37.483Z,50.33
2018-01-12T00:49:03.909Z,50.77
2018-01-12T00:51:30.376Z,50.57
2018-01-12T00:53:56.964Z,52.03
2018-01-12T00:56:23.764Z,49.73
2018-01-12T00:58:50.472Z,52.17
2018-01-12T01:01:17.041Z,52.97
2018-01-12T01:03:43.567Z,51.63
2018-01-12T01:06:10.051Z,58.07
2018-01-12T01:08:36.599Z,52.50
2018-01-12T01:11:03.035Z,53.30
2018-01-12T01:13:29.367Z,53.63
2018-01-12T01:15:55.799Z,57.63
2018-01-12T01:18:22.192Z,51.33
2018-01-12T01:20:48.600Z,55.43
2018-01-12T01:23:15.036Z,50.50
2018-01-12T01:25:41.460Z,51.63
2018-01-12T01:28:07.783Z,51.77
2018-01-12T01:30:34.211Z,54.50
2018-01-12T01:33:00.669Z,56.90
2018-01-12T01:35:27.071Z,51.40
2018-01-12T01:37:53.507Z,53.87
2018-01-12T01:40:19.936Z,50.77
2018-01-12T01:42:46.382Z,50.27
2018-01-12T01:45:12.755Z,48.70
2018-01-12T01:47:39.141Z,55.50
2018-01-12T01:50:05.526Z,46.40
2018-01-12T01:52:31.947Z,46.97
2018-01-12T01:54:58.376Z,49.90
2018-01-12T01:57:24.771Z,45.63
2018-01-12T01:59:51.196Z,52.47
2018-01-12T02:02:17.588Z,52.93
2018-01-12T02:04:43.967Z,51.50
2018-01-12T02:07:10.343Z,57.20
2018-01-12T02:09:36.721Z,53.03
2018-01-12T02:12:03.088Z,51.23
2018-01-12T02:14:29.505Z,52.17
2018-01-12T02:16:55.947Z,53.33
2018-01-12T02:19:22.359Z,50.83
2018-01-12T02:21:48.903Z,53.90
2018-01-12T02:24:15.301Z,54.37
2018-01-12T02:26:42.335Z,61.37
2018-01-12T02:29:08.766Z,56.87
2018-01-12T02:31:35.492Z,52.10
2018-01-12T02:34:01.904Z,58.23
2018-01-12T02:36:28.287Z,52.83
2018-01-12T02:38:54.688Z,55.30
2018-01-12T02:41:21.116Z,51.43
2018-01-12T02:43:47.543Z,53.73
2018-01-12T02:46:13.895Z,48.43
2018-01-12T02:48:40.283Z,50.60
2018-01-12T02:51:06.644Z,48.17
2018-01-12T02:53:33.033Z,52.53
2018-01-12T02:55:59.408Z,53.37
2018-01-12T02:58:25.815Z,51.47
2018-01-12T03:00:52.192Z,52.93
2018-01-12T03:03:18.659Z,51.03
2018-01-12T03:05:45.000Z,52.73
2018-01-12T03:08:11.403Z,53.40
2018-01-12T03:10:37.803Z,48.73
2018-01-12T03:13:04.158Z,53.93
2018-01-12T03:15:30.503Z,55.30
2018-01-12T03:17:56.883Z,51.37
2018-01-12T03:20:23.266Z,55.87
2018-01-12T03:22:49.943Z,52.90
2018-01-12T03:25:16.367Z,51.77
2018-01-12T03:27:42.772Z,48.83
2018-01-12T03:30:09.135Z,56.73
2018-01-12T03:32:35.515Z,52.10
2018-01-12T03:35:01.931Z,50.60
2018-01-12T03:37:28.363Z,47.63
2018-01-12T03:39:54.720Z,50.60
2018-01-12T03:42:21.043Z,62.23
2018-01-12T03:44:47.464Z,48.17
2018-01-12T03:47:13.880Z,49.43
2018-01-12T03:49:40.351Z,54.23
2018-01-12T03:52:06.768Z,51.73
2018-01-12T03:54:33.240Z,53.47
2018-01-12T03:56:59.611Z,50.13
2018-01-12T03:59:26.203Z,53.50
2018-01-12T04:01:52.636Z,51.93
2018-01-12T04:04:19.044Z,52.17
2018-01-12T04:06:45.507Z,57.90
2018-01-12T04:09:11.864Z,49.33
2018-01-12T04:11:38.267Z,50.50
2018-01-12T04:14:04.671Z,56.77
2018-01-12T04:16:31.107Z,51.03
2018-01-12T04:18:57.523Z,53.03
2018-01-12T04:21:23.911Z,53.23
2018-01-12T04:23:50.368Z,54.27
2018-01-12T04:26:16.742Z,53.43
2018-01-12T04:28:43.137Z,54.27
2018-01-12T04:31:09.547Z,54.27
2018-01-12T04:33:35.903Z,52.77
2018-01-12T04:36:02.290Z,55.90
2018-01-12T04:38:28.796Z,53.20
2018-01-12T04:40:55.280Z,55.67
2018-01-12T04:43:21.639Z,56.03
2018-01-12T04:45:48.043Z,57.17
2018-01-12T04:48:14.420Z,60.63
2018-01-12T04:50:40.843Z,57.83
2018-01-12T04:53:07.216Z,55.07
2018-01-12T04:55:33.567Z,54.67
2018-01-12T04:57:59.912Z,63.50
2018-01-12T05:00:26.352Z,55.50
2018-01-12T05:02:52.756Z,60.93
2018-01-12T05:05:19.312Z,62.63
2018-01-12T05:07:45.731Z,65.70
2018-01-12T05:10:12.121Z,76.37
2018-01-12T05:12:38.580Z,61.83
2018-01-12T05:15:05.014Z,64.53
2018-01-12T05:17:31.500Z,66.13
2018-01-12T05:19:57.920Z,64.33
2018-01-12T05:22:24.307Z,61.50
2018-01-12T05:24:50.687Z,63.43
2018-01-12T05:27:17.059Z,55.80
2018-01-12T05:29:43.431Z,56.57
2018-01-12T05:32:09.769Z,59.63
2018-01-12T05:34:36.280Z,56.33
2018-01-12T05:37:02.772Z,54.97
2018-01-12T05:39:29.131Z,55.13
2018-01-12T05:41:55.548Z,59.87
2018-01-12T05:44:21.976Z,74.57
2018-01-12T05:46:48.387Z,69.67
2018-01-12T05:49:14.755Z,79.27
2018-01-12T05:51:41.108Z,86.03
2018-01-12T05:54:07.480Z,91.33
2018-01-12T05:56:33.830Z,91.63
2018-01-12T05:59:00.228Z,86.53
2018-01-12T06:01:38.747Z,73.87
2018-01-12T06:04:17.243Z,65.90
2018-01-12T06:06:43.580Z,60.97
2018-01-12T06:09:09.964Z,62.10
2018-01-12T06:11:36.307Z,64.10
2018-01-12T06:14:02.712Z,68.40
2018-01-12T06:16:29.152Z,57.00
2018-01-12T06:18:55.555Z,74.30
2018-01-12T06:21:21.996Z,92.83
2018-01-12T06:23:48.436Z,144.87
2018-01-12T06:26:14.796Z,112.17
2018-01-12T06:28:41.333Z,107.87
2018-01-12T06:31:07.695Z,116.47
2018-01-12T06:33:34.063Z,114.73
2018-01-12T06:36:00.548Z,115.60
2018-01-12T06:38:26.911Z,112.83
2018-01-12T06:40:53.443Z,115.10
2018-01-12T06:43:19.879Z,104.43
2018-01-12T06:45:46.305Z,96.33
2018-01-12T06:48:12.657Z,97.87
2018-01-12T06:50:39.061Z,93.23
2018-01-12T06:53:05.457Z,87.53
2018-01-12T06:55:31.912Z,89.03
2018-01-12T06:57:58.264Z,94.60
2018-01-12T07:00:24.691Z,95.73
2018-01-12T07:02:51.099Z,104.57
2018-01-12T07:05:17.435Z,100.33
2018-01-12T07:07:43.855Z,98.80
2018-01-12T07:10:10.255Z,101.73
2018-01-12T07:12:36.608Z,100.73
2018-01-12T07:15:03.043Z,101.33
2018-01-12T07:17:29.464Z,110.27
2018-01-12T07:19:55.924Z,113.60
2018-01-12T07:22:26.807Z,107.67
2018-01-12T07:24:53.296Z,98.87
2018-01-12T07:27:19.763Z,95.83
2018-01-12T07:29:46.200Z,100.47
2018-01-12T07:32:12.620Z,111.23
2018-01-12T07:34:38.984Z,103.03
2018-01-12T07:37:05.388Z,107.80
2018-01-12T07:39:31.747Z,93.93
2018-01-12T07:41:58.208Z,81.77
2018-01-12T07:44:24.622Z,111.67
2018-01-12T07:46:51.083Z,82.67
2018-01-12T07:49:17.492Z,61.50
2018-01-12T07:51:43.916Z,67.10
2018-01-12T07:54:10.304Z,60.87
2018-01-12T07:56:36.780Z,72.03
2018-01-12T07:59:03.159Z,64.37
2018-01-12T08:01:35.508Z,52.90
2018-01-12T08:04:01.959Z,42.70
2018-01-12T08:06:28.363Z,50.57
2018-01-12T08:08:54.723Z,52.93
2018-01-12T08:11:21.095Z,53.27
2018-01-12T08:13:47.495Z,51.07
2018-01-12T08:16:13.887Z,54.33
2018-01-12T08:18:40.371Z,49.33
2018-01-12T08:21:06.779Z,51.37
2018-01-12T08:23:33.228Z,51.67
2018-01-12T08:25:59.664Z,56.20
2018-01-12T08:28:26.039Z,51.83
2018-01-12T08:30:52.435Z,57.57
2018-01-12T08:33:19.719Z,58.87
2018-01-12T08:35:46.137Z,56.20
2018-01-12T08:38:12.522Z,50.53
2018-01-12T08:40:38.883Z,49.60
2018-01-12T08:43:05.283Z,59.03
2018-01-12T08:45:31.724Z,55.03
2018-01-12T08:47:58.060Z,55.50
2018-01-12T08:50:24.584Z,56.47
2018-01-12T08:52:51.022Z,57.60
2018-01-12T08:55:17.398Z,55.33
2018-01-12T08:57:43.789Z,51.73
2018-01-12T09:00:10.264Z,50.93
2018-01-12T09:02:36.647Z,53.50
2018-01-12T09:05:03.108Z,65.70
2018-01-12T09:07:29.572Z,43.20
2018-01-12T09:09:55.979Z,41.10
2018-01-12T09:12:22.464Z,37.17
2018-01-12T09:14:50.081Z,41.53
2018-01-12T09:17:28.804Z,40.17
2018-01-12T09:20:07.492Z,45.33
2018-01-12T09:22:48.952Z,46.57
2018-01-12T09:25:25.368Z,58.97
2018-01-12T09:27:51.803Z,49.67
2018-01-12T09:30:18.255Z,40.97
2018-01-12T09:32:44.754Z,44.83
2018-01-12T09:35:11.187Z,32.93
2018-01-12T09:37:39.832Z,34.27
2018-01-12T09:40:27.336Z,36.00
2018-01-12T09:42:53.746Z,31.47
2018-01-12T09:45:20.103Z,34.43
2018-01-12T09:47:58.691Z,25.77
2018-01-12T09:50:25.090Z,25.80
2018-01-12T09:52:51.564Z,26.20
2018-01-12T09:55:18.007Z,23.57
2018-01-12T09:57:44.383Z,27.30
2018-01-12T10:13:38.625Z,18.10
2018-01-12T10:16:04.974Z,18.30
2018-01-12T10:18:34.540Z,18.07
2018-01-12T10:21:05.859Z,18.33
2018-01-12T10:23:32.344Z,18.67
2018-01-12T10:25:58.727Z,18.80
2018-01-12T10:28:25.171Z,21.23
2018-01-12T10:30:58.227Z,22.57
2018-01-12T10:47:04.467Z,34.93
2018-01-12T10:49:32.891Z,31.00
2018-01-12T10:52:06.115Z,48.23
2018-01-12T10:54:32.519Z,35.60
2018-01-12T10:56:58.947Z,42.80
2018-01-12T10:59:25.307Z,35.10
2018-01-12T11:01:51.709Z,32.40
2018-01-12T11:04:18.248Z,33.50
2018-01-12T11:06:44.692Z,29.27
2018-01-12T11:09:11.127Z,27.57
2018-01-12T11:11:37.575Z,30.90
2018-01-12T11:14:03.975Z,32.00
2018-01-12T11:16:30.357Z,25.07
2018-01-12T11:18:56.720Z,22.30
2018-01-12T11:21:23.095Z,22.07
2018-01-12T11:23:49.527Z,27.67
2018-01-12T11:26:15.956Z,28.03
2018-01-12T11:28:42.371Z,27.90
2018-01-12T11:31:08.872Z,27.77
2018-01-12T11:33:35.267Z,20.83
2018-01-12T11:36:01.643Z,22.17
2018-01-12T11:38:28.092Z,19.97
2018-01-12T11:40:54.493Z,25.77
2018-01-12T11:43:20.959Z,24.77
2018-01-12T11:45:47.407Z,33.33
2018-01-12T11:48:13.891Z,22.60
2018-01-12T11:50:40.275Z,22.93
2018-01-12T11:53:06.711Z,23.63
2018-01-12T11:55:33.157Z,22.33
2018-01-12T11:58:01.393Z,15.70
2018-01-12T12:00:28.801Z,14.83
2018-01-12T12:02:57.301Z,14.27
2018-01-12T12:05:25.338Z,19.03
2018-01-12T12:07:53.109Z,19.20
2018-01-12T12:10:27.231Z,15.93
2018-01-12T12:12:54.099Z,14.77
2018-01-12T12:15:22.730Z,17.60
2018-01-12T12:17:51.845Z,16.60
2018-01-12T12:20:20.282Z,16.13
2018-01-12T12:22:47.418Z,15.57
2018-01-12T12:25:14.155Z,15.23
2018-01-12T12:27:40.667Z,17.30
2018-01-12T12:30:07.120Z,13.43
2018-01-12T12:32:33.536Z,16.77
2018-01-12T12:34:59.981Z,18.23
2018-01-12T12:37:26.438Z,20.17
2018-01-12T12:39:52.863Z,15.73
2018-01-12T12:42:19.221Z,19.10
2018-01-12T12:44:45.676Z,20.40
2018-01-12T12:47:12.145Z,18.97
2018-01-12T12:49:38.531Z,25.07
2018-01-12T12:52:04.934Z,20.10
2018-01-12T12:54:31.374Z,18.87
2018-01-12T12:56:57.820Z,17.07
2018-01-12T12:59:24.232Z,16.17
2018-01-12T13:01:50.623Z,19.67
2018-01-12T13:04:17.005Z,18.93
2018-01-12T13:06:43.423Z,25.00
2018-01-12T13:09:09.845Z,35.20
2018-01-12T13:11:36.207Z,31.10
2018-01-12T13:14:02.608Z,31.37
2018-01-12T13:16:29.011Z,37.37
2018-01-12T13:18:55.637Z,40.57
2018-01-12T13:21:22.047Z,35.30
2018-01-12T13:23:48.408Z,36.23
2018-01-12T13:26:14.807Z,37.93
2018-01-12T13:28:41.287Z,40.93
2018-01-12T13:31:07.666Z,34.10
2018-01-12T13:33:34.060Z,35.67
2018-01-12T13:36:00.544Z,38.53
2018-01-12T13:38:26.911Z,31.50
2018-01-12T13:40:53.316Z,36.53
2018-01-12T13:43:19.755Z,36.73
2018-01-12T13:45:46.135Z,34.00
2018-01-12T13:48:12.516Z,38.67
2018-01-12T13:50:38.907Z,33.93
2018-01-12T13:53:05.267Z,36.23
2018-01-12T13:55:31.639Z,42.40
2018-01-12T13:57:58.016Z,39.77
2018-01-12T14:00:24.483Z,39.43
2018-01-12T14:02:50.850Z,37.13
2018-01-12T14:05:17.278Z,40.90
2018-01-12T14:07:43.744Z,33.97
2018-01-12T14:10:10.115Z,35.40
2018-01-12T14:12:36.503Z,37.93
2018-01-12T14:15:02.979Z,39.43
2018-01-12T14:17:29.375Z,34.73
2018-01-12T14:19:55.710Z,36.33
2018-01-12T14:22:22.099Z,28.93
2018-01-12T14:24:48.460Z,30.40
2018-01-12T14:27:14.915Z,28.83
2018-01-12T14:29:41.347Z,26.10
2018-01-12T14:32:07.711Z,21.07
2018-01-12T14:34:34.067Z,22.80
2018-01-12T14:37:00.476Z,18.27
2018-01-12T14:39:26.886Z,20.23
2018-01-12T14:41:53.270Z,22.10
2018-01-12T14:44:19.644Z,28.63
2018-01-12T14:46:46.027Z,26.87
2018-01-12T14:49:12.553Z,28.67
2018-01-12T14:51:39.011Z,35.47
2018-01-12T14:54:05.420Z,42.47
2018-01-12T14:56:31.899Z,35.40
2018-01-12T14:58:58.290Z,33.23
2018-01-12T15:01:24.714Z,35.10
2018-01-12T15:03:51.134Z,39.50
2018-01-12T15:06:17.513Z,34.83
2018-01-12T15:08:43.975Z,37.33
2018-01-12T15:11:10.388Z,40.63
2018-01-12T15:13:36.763Z,35.17
2018-01-12T15:16:03.172Z,39.87
2018-01-12T15:18:29.640Z,34.20
2018-01-12T15:20:56.052Z,36.90
2018-01-12T15:23:22.448Z,43.80
2018-01-12T15:25:48.799Z,48.83
2018-01-12T15:28:15.227Z,44.27
2018-01-12T15:30:41.659Z,44.27
2018-01-12T15:33:08.091Z,67.03
2018-01-12T15:35:34.534Z,62.00
2018-01-12T15:38:00.972Z,60.10
2018-01-12T15:40:27.408Z,67.77
2018-01-12T15:42:53.783Z,66.53
2018-01-12T15:45:20.215Z,68.07
2018-01-12T15:47:46.591Z,65.10
2018-01-12T15:50:12.983Z,62.90
2018-01-12T15:52:39.384Z,54.87
2018-01-12T15:55:05.799Z,60.47
2018-01-12T15:57:32.160Z,59.83
2018-01-12T15:59:58.587Z,61.57
2018-01-12T16:02:25.094Z,64.33
2018-01-12T16:04:51.436Z,67.90
2018-01-12T16:07:17.858Z,70.40
2018-01-12T16:09:44.274Z,68.43
2018-01-12T16:12:10.651Z,65.50
2018-01-12T16:14:37.061Z,58.13
2018-01-12T16:17:03.495Z,42.47
2018-01-12T16:19:29.823Z,50.13
2018-01-12T16:21:56.319Z,58.77
2018-01-12T16:24:22.720Z,52.13
2018-01-12T16:26:49.124Z,57.37
2018-01-12T16:29:15.504Z,40.80
2018-01-12T16:31:41.992Z,47.13
2018-01-12T16:34:08.404Z,59.73
2018-01-12T16:36:34.756Z,52.90
2018-01-12T16:39:01.225Z,41.07
2018-01-12T16:41:27.669Z,40.83
2018-01-12T16:43:54.148Z,43.23
2018-01-12T16:46:20.482Z,32.13
2018-01-12T16:48:46.868Z,31.20
2018-01-12T16:51:13.394Z,32.47
2018-01-12T16:53:39.804Z,26.93
2018-01-12T16:56:06.167Z,23.83
2018-01-12T16:58:32.627Z,22.50
2018-01-12T17:00:59.111Z,23.27
2018-01-12T17:03:25.493Z,23.33
2018-01-12T17:05:51.875Z,26.80
2018-01-12T17:08:18.335Z,35.63
2018-01-12T17:10:44.704Z,33.03
2018-01-12T17:13:11.138Z,41.27
2018-01-12T17:15:37.537Z,32.40
2018-01-12T17:18:03.890Z,38.60
2018-01-12T17:20:30.347Z,48.93
2018-01-12T17:22:56.731Z,33.43
2018-01-12T17:25:23.144Z,31.97
2018-01-12T17:27:49.680Z,35.67
2018-01-12T17:30:16.063Z,31.73
2018-01-12T17:32:42.439Z,39.10
2018-01-12T17:35:08.842Z,29.83
2018-01-12T17:37:35.380Z,34.33
2018-01-12T17:40:01.719Z,27.07
2018-01-12T17:42:28.181Z,29.17
2018-01-12T17:44:54.583Z,24.00
2018-01-12T17:47:20.959Z,20.03
2018-01-12T17:49:47.669Z,16.43
2018-01-12T17:52:14.128Z,15.40
2018-01-12T17:54:40.515Z,16.80
2018-01-12T17:57:06.878Z,17.93
2018-01-12T17:59:33.321Z,15.23
2018-01-12T18:01:59.708Z,15.20
2018-01-12T18:04:26.116Z,15.57
2018-01-12T18:06:52.604Z,20.03
2018-01-12T18:09:18.988Z,18.03
2018-01-12T18:11:45.367Z,17.27
2018-01-12T18:14:11.811Z,11.23
2018-01-12T18:16:38.814Z,15.07
2018-01-12T18:29:11.011Z,10.60
2018-01-12T18:31:38.913Z,10.27
2018-01-12T18:34:06.486Z,9.60
2018-01-12T18:36:34.845Z,12.80
2018-01-12T18:39:04.919Z,10.23
2018-01-12T18:41:32.457Z,9.50
2018-01-12T18:44:07.935Z,16.13
2018-01-12T18:46:36.066Z,12.27
2018-01-12T18:49:02.757Z,11.43
2018-01-12T18:51:30.705Z,13.20
2018-01-12T18:53:59.668Z,10.57
2018-01-12T18:56:28.179Z,13.53
2018-01-12T18:58:55.593Z,13.47
2018-01-12T19:01:22.899Z,15.00
2018-01-12T19:03:49.574Z,12.63
2018-01-12T19:06:17.045Z,13.73
2018-01-12T19:08:48.109Z,14.27
2018-01-12T19:11:18.766Z,13.03
2018-01-12T19:13:45.247Z,10.83
2018-01-12T19:16:11.788Z,12.50
2018-01-12T19:18:38.216Z,13.67
2018-01-12T19:21:04.591Z,15.43
2018-01-12T19:23:31.012Z,18.47
2018-01-12T19:25:57.542Z,13.70
2018-01-12T19:28:24.078Z,15.43
2018-01-12T19:30:50.503Z,15.17
2018-01-12T19:33:16.935Z,27.37
2018-01-12T19:35:43.329Z,14.50
2018-01-12T19:38:09.858Z,12.67
2018-01-12T19:40:36.267Z,15.97
2018-01-12T19:43:02.794Z,15.53
2018-01-12T19:45:29.231Z,14.70
2018-01-12T19:47:55.816Z,12.17
2018-01-12T19:50:22.200Z,12.20
2018-01-12T19:52:48.624Z,14.57
2018-01-12T19:55:15.014Z,14.50
2018-01-12T19:57:41.419Z,15.70
2018-01-12T20:00:07.855Z,15.07
2018-01-12T20:02:34.319Z,13.40
2018-01-12T20:05:00.708Z,12.07
2018-01-12T20:07:27.139Z,12.87
2018-01-12T20:09:53.596Z,14.93
2018-01-12T20:12:19.983Z,14.80
2018-01-12T20:14:46.438Z,16.17
2018-01-12T20:17:12.841Z,17.70
2018-01-12T20:19:39.220Z,21.70
2018-01-12T20:22:05.652Z,21.13
2018-01-12T20:24:32.065Z,15.67
2018-01-12T20:26:58.464Z,19.03
2018-01-12T20:29:24.858Z,17.40
2018-01-12T20:31:51.342Z,13.43
2018-01-12T20:34:17.779Z,13.30
2018-01-12T20:36:44.178Z,13.10
2018-01-12T20:39:10.592Z,9.07
2018-01-12T20:41:36.967Z,11.17
2018-01-12T20:44:03.435Z,11.80
2018-01-12T20:46:29.810Z,14.60
2018-01-12T20:48:56.323Z,16.00
2018-01-12T20:51:22.752Z,15.97
2018-01-12T20:53:49.329Z,16.73
2018-01-12T20:56:15.721Z,14.13
2018-01-12T20:58:42.083Z,15.97
2018-01-12T21:01:08.532Z,13.80
2018-01-12T21:03:34.942Z,20.03
2018-01-12T21:06:01.297Z,21.33
2018-01-12T21:08:27.671Z,20.80
2018-01-12T21:10:54.119Z,20.53
2018-01-12T21:13:20.523Z,18.13
2018-01-12T21:15:47.879Z,15.63
2018-01-12T21:18:14.361Z,15.10
2018-01-12T21:20:40.893Z,12.40
2018-01-12T21:23:07.263Z,14.03
2018-01-12T21:25:33.715Z,17.60
2018-01-12T21:28:00.178Z,18.67
2018-01-12T21:30:26.560Z,14.27
2018-01-12T21:32:53.044Z,12.40
2018-01-12T21:35:19.403Z,11.03
2018-01-12T21:37:45.740Z,10.13
2018-01-12T21:40:12.099Z,16.13
2018-01-12T21:42:38.577Z,10.20
2018-01-12T21:45:05.247Z,12.07
2018-01-12T21:47:31.623Z,9.87
2018-01-12T21:49:58.039Z,10.87
2018-01-12T21:52:24.566Z,11.70
2018-01-12T21:54:51.017Z,11.53
2018-01-12T21:57:17.467Z,9.93
2018-01-12T21:59:43.830Z,23.83
2018-01-12T22:02:10.240Z,14.00
2018-01-12T22:04:36.882Z,15.30
2018-01-12T22:07:03.287Z,12.30
2018-01-12T22:09:29.690Z,12.90
2018-01-12T22:11:56.100Z,11.13
2018-01-12T22:14:22.447Z,16.63
2018-01-12T22:16:48.847Z,11.43
2018-01-12T22:19:15.271Z,11.47
2018-01-12T22:21:41.602Z,13.47
2018-01-12T22:24:07.976Z,14.20
2018-01-12T22:26:34.528Z,13.73
2018-01-12T22:29:01.012Z,14.10
2018-01-12T22:31:27.379Z,14.07
2018-01-12T22:33:53.832Z,15.17
2018-01-12T22:36:20.339Z,16.50
2018-01-12T22:38:46.765Z,17.30
2018-01-12T22:41:13.148Z,13.37
2018-01-12T22:43:39.507Z,17.47
2018-01-12T22:46:05.858Z,15.37
2018-01-12T22:48:32.287Z,15.83
2018-01-12T22:50:58.641Z,17.40
2018-01-12T22:53:25.024Z,16.77
2018-01-12T22:55:51.387Z,15.23
2018-01-12T22:58:17.739Z,17.43
2018-01-12T23:00:44.227Z,19.43
2018-01-12T23:03:10.608Z,19.50
2018-01-12T23:05:36.991Z,18.63
2018-01-12T23:08:03.349Z,16.53
2018-01-12T23:10:29.707Z,13.90
2018-01-12T23:12:56.080Z,19.50
2018-01-12T23:15:22.471Z,16.03
2018-01-12T23:17:48.837Z,19.30
2018-01-12T23:20:15.191Z,17.70
2018-01-12T23:22:41.593Z,14.90
2018-01-12T23:25:08.028Z,15.87
2018-01-12T23:27:34.666Z,16.00
2018-01-12T23:30:00.975Z,12.73
2018-01-12T23:32:27.374Z,12.83
2018-01-12T23:34:53.726Z,11.97
2018-01-12T23:37:20.100Z,15.77
2018-01-12T23:39:46.528Z,10.30
2018-01-12T23:42:12.904Z,12.90
2018-01-12T23:44:39.272Z,11.47
2018-01-12T23:47:05.760Z,12.00
2018-01-12T23:49:32.135Z,13.33
2018-01-12T23:51:58.554Z,15.83
2018-01-12T23:54:24.990Z,13.03
2018-01-12T23:56:51.327Z,10.87
2018-01-12T23:59:17.807Z,11.63
